Time;durP1;ratioP1;P1;durP2;ratioP2;P2;SDS_P1;SDS_P2;PMS_P1;PMS_P2;Temp;Humidity;BMP_temperature;BMP_pressure;BME280_temperature;BME280_humidity;BME280_pressure;Samples;Min_cycle;Max_cycle;Signal;HPM_P1;HPM_P2
2022/11/13 00:00:36;;;;;;;12.60;6.88;;;;;;;4.33;72.26;93718.91;2050460;70;20622;-74
2022/11/13 00:03:21;;;;;;;12.63;6.72;;;;;;;4.25;72.12;93713.28;2050772;70;20240;-74
2022/11/13 00:06:06;;;;;;;13.25;6.28;;;;;;;4.26;71.82;93706.44;2050601;70;20538;-75
2022/11/13 00:08:54;;;;;;;11.88;5.93;;;;;;;4.08;72.08;93705.34;2050665;70;20286;-73
2022/11/13 00:11:38;;;;;;;11.35;6.13;;;;;;;4.13;72.48;93698.16;2050768;70;20165;-72
2022/11/13 00:14:22;;;;;;;12.55;6.00;;;;;;;4.13;71.55;93692.56;2050657;70;20181;-73
2022/11/13 00:17:06;;;;;;;12.73;6.60;;;;;;;4.04;72.78;93698.63;2050592;70;20181;-73
2022/11/13 00:19:50;;;;;;;11.23;6.13;;;;;;;4.17;71.49;93700.56;2053013;70;20197;-73
2022/11/13 00:22:34;;;;;;;13.00;6.15;;;;;;;4.18;72.98;93694.47;2054290;69;20156;-73
2022/11/13 00:25:18;;;;;;;12.85;6.35;;;;;;;4.05;72.42;93680.59;2050105;70;20164;-73
2022/11/13 00:28:02;;;;;;;12.32;6.30;;;;;;;3.91;73.03;93691.09;2051125;70;20149;-73
2022/11/13 00:30:46;;;;;;;11.63;6.40;;;;;;;3.85;73.00;93687.69;2048151;70;20165;-73
2022/11/13 00:33:31;;;;;;;11.38;5.82;;;;;;;3.90;72.46;93692.38;2051184;70;20640;-74
2022/11/13 00:36:21;;;;;;;11.15;6.30;;;;;;;3.88;72.64;93674.69;2051228;70;20208;-74
2022/11/13 00:39:05;;;;;;;14.20;6.13;;;;;;;3.93;72.51;93682.91;2048176;70;20217;-74
2022/11/13 00:41:49;;;;;;;17.40;6.30;;;;;;;3.69;73.21;93675.66;2051177;70;20150;-74
2022/11/13 00:44:33;;;;;;;13.60;6.30;;;;;;;3.83;73.17;93682.66;2050988;70;20162;-74
2022/11/13 00:47:17;;;;;;;13.52;6.72;;;;;;;3.91;72.29;93666.00;2051040;70;20244;-74
2022/11/13 00:50:03;;;;;;;12.35;6.13;;;;;;;3.83;72.54;93665.94;2051167;70;20566;-73
2022/11/13 00:52:47;;;;;;;12.02;5.80;;;;;;;3.82;72.93;93664.44;2051218;70;20209;-73
2022/11/13 00:55:31;;;;;;;10.05;5.90;;;;;;;3.85;73.13;93656.28;2051200;70;20670;-73
2022/11/13 00:58:16;;;;;;;9.77;5.47;;;;;;;3.78;72.90;93664.03;2051022;70;20165;-74
2022/11/13 01:01:12;;;;;;;11.00;5.80;;;;;;;3.86;72.97;93655.75;2051187;70;20589;-74
2022/11/13 01:03:56;;;;;;;10.70;5.55;;;;;;;3.96;73.39;93653.22;2051092;70;20240;-74
2022/11/13 01:06:40;;;;;;;10.02;5.32;;;;;;;3.81;71.94;93649.03;2051118;70;20225;-74
2022/11/13 01:09:24;;;;;;;10.63;5.22;;;;;;;3.88;72.42;93646.84;2051122;70;20145;-74
2022/11/13 01:12:08;;;;;;;10.43;4.75;;;;;;;3.86;72.73;93632.72;2051120;70;20282;-74
2022/11/13 01:14:52;;;;;;;10.23;5.45;;;;;;;3.65;74.26;93636.25;2051114;70;20157;-75
2022/11/13 01:17:37;;;;;;;9.40;5.13;;;;;;;3.65;73.33;93632.72;2048222;70;20529;-74
2022/11/13 01:20:23;;;;;;;10.15;5.38;;;;;;;3.71;73.52;93634.09;2051141;70;20185;-75
2022/11/13 01:23:07;;;;;;;10.13;5.28;;;;;;;3.62;73.00;93631.00;2051131;70;20165;-75
2022/11/13 01:25:52;;;;;;;8.45;5.05;;;;;;;3.66;72.74;93623.06;2051221;70;20213;-74
2022/11/13 01:28:36;;;;;;;8.40;5.32;;;;;;;3.77;73.26;93617.97;2051045;70;20234;-74
2022/11/13 01:31:23;;;;;;;11.73;4.90;;;;;;;3.73;73.06;93617.56;2051250;70;20518;-74
2022/11/13 01:34:08;;;;;;;8.65;4.63;;;;;;;3.68;73.69;93617.72;2051540;70;20499;-73
2022/11/13 01:36:52;;;;;;;10.15;5.25;;;;;;;3.68;73.90;93614.94;2050792;70;20154;-73
2022/11/13 01:39:36;;;;;;;12.45;5.00;;;;;;;3.69;72.85;93608.81;2048400;70;20257;-73
2022/11/13 01:42:20;;;;;;;9.20;4.60;;;;;;;3.70;73.12;93609.56;2051088;70;20491;-73
2022/11/13 01:45:43;;;;;;;10.02;4.53;;;;;;;3.55;73.48;93602.56;2051238;70;20185;-74
2022/11/13 01:48:39;;;;;;;8.02;4.30;;;;;;;3.73;73.99;93600.13;2051219;70;20145;-74
2022/11/13 01:51:32;;;;;;;9.80;4.40;;;;;;;3.75;73.35;93598.25;2050828;70;20189;-74
2022/11/13 01:54:21;;;;;;;9.52;4.63;;;;;;;3.73;73.14;93589.72;2051208;70;20200;-73
2022/11/13 01:57:08;;;;;;;7.22;4.10;;;;;;;3.64;71.73;93592.25;2048444;70;20161;-73
2022/11/13 02:00:02;;;;;;;7.32;4.20;;;;;;;3.73;72.72;93600.13;2051077;70;20246;-73
2022/11/13 02:02:47;;;;;;;8.75;4.78;;;;;;;3.56;73.65;93592.91;2051081;70;20177;-74
2022/11/13 02:05:31;;;;;;;7.70;4.45;;;;;;;3.50;72.79;93588.78;2051071;70;20645;-74
2022/11/13 02:08:18;;;;;;;8.13;4.63;;;;;;;3.46;72.82;93580.03;2051095;70;20165;-74
2022/11/13 02:11:03;;;;;;;8.80;4.50;;;;;;;3.55;73.13;93576.75;2050918;70;20157;-73
2022/11/13 02:13:47;;;;;;;8.27;4.68;;;;;;;3.48;72.81;93574.66;2050821;70;20173;-73
2022/11/13 02:16:34;;;;;;;7.38;4.28;;;;;;;3.41;72.40;93573.31;2050813;70;20249;-73
2022/11/13 02:19:28;;;;;;;6.00;3.78;;;;;;;3.46;72.34;93574.44;2050810;70;20161;-74
2022/11/13 02:22:23;;;;;;;6.60;4.07;;;;;;;3.33;72.65;93575.25;2048311;70;20156;-74
2022/11/13 02:25:13;;;;;;;8.85;4.40;;;;;;;3.49;73.04;93576.91;2051134;70;20249;-75
2022/11/13 02:27:57;;;;;;;7.18;4.18;;;;;;;3.34;72.44;93573.97;2051026;70;20235;-74
2022/11/13 02:30:42;;;;;;;7.15;3.92;;;;;;;3.38;73.17;93568.81;2051363;70;20149;-73
2022/11/13 02:33:32;;;;;;;9.93;6.13;;;;;;;3.30;72.71;93568.00;2051238;70;20177;-72
2022/11/13 02:36:19;;;;;;;8.98;4.28;;;;;;;3.33;73.06;93561.34;2051248;70;20180;-73
2022/11/13 02:39:08;;;;;;;8.45;4.03;;;;;;;3.29;73.72;93556.13;2048348;70;20208;-72
2022/11/13 02:41:52;;;;;;;7.65;4.22;;;;;;;3.24;73.26;93553.47;2051379;70;20197;-74
2022/11/13 02:44:37;;;;;;;8.90;4.97;;;;;;;3.28;73.30;93554.63;2051136;70;20649;-74
2022/11/13 02:47:21;;;;;;;10.30;4.57;;;;;;;3.26;73.11;93534.22;2050948;70;20193;-72
2022/11/13 02:50:06;;;;;;;6.82;3.88;;;;;;;3.40;72.66;93540.44;2050938;70;20230;-74
2022/11/13 02:52:50;;;;;;;8.00;4.32;;;;;;;3.17;73.60;93529.88;2050925;70;20602;-74
2022/11/13 02:55:34;;;;;;;10.02;4.20;;;;;;;3.13;73.80;93518.31;2050858;70;20551;-74
2022/11/13 02:58:18;;;;;;;6.88;4.00;;;;;;;3.13;72.92;93521.09;2050727;70;20220;-74
2022/11/13 03:01:03;;;;;;;7.63;4.10;;;;;;;3.03;72.55;93518.06;2051093;70;20234;-74
2022/11/13 03:03:47;;;;;;;6.82;3.90;;;;;;;3.06;73.02;93516.94;2050926;70;20161;-73
2022/11/13 03:06:32;;;;;;;7.07;3.60;;;;;;;3.18;73.22;93525.78;2050883;70;20149;-74
2022/11/13 03:09:16;;;;;;;8.18;4.35;;;;;;;3.14;73.43;93527.41;2050867;70;20228;-74
2022/11/13 03:12:00;;;;;;;9.30;4.00;;;;;;;3.03;72.96;93529.19;2050870;70;20157;-74
2022/11/13 03:14:44;;;;;;;7.63;4.10;;;;;;;3.05;73.20;93528.63;2050667;70;20225;-74
2022/11/13 03:17:31;;;;;;;7.13;4.03;;;;;;;3.02;73.33;93524.91;2050687;70;20251;-74
2022/11/13 03:20:16;;;;;;;7.43;3.80;;;;;;;3.03;72.35;93526.41;2050786;70;20239;-73
2022/11/13 03:23:01;;;;;;;8.48;4.53;;;;;;;3.05;72.43;93521.03;2050865;70;20245;-74
2022/11/13 03:25:45;;;;;;;8.45;5.30;;;;;;;2.95;74.84;93519.25;2050840;70;20180;-74
2022/11/13 03:28:29;;;;;;;8.48;4.80;;;;;;;3.11;74.64;93506.97;2050658;70;20621;-74
2022/11/13 03:31:13;;;;;;;7.03;3.95;;;;;;;3.12;74.15;93505.72;2050705;70;20157;-72
2022/11/13 03:33:57;;;;;;;7.22;3.97;;;;;;;3.13;73.89;93496.06;2050689;70;20153;-73
2022/11/13 03:36:42;;;;;;;6.63;4.20;;;;;;;3.15;73.48;93495.50;2051095;70;20230;-74
2022/11/13 03:39:26;;;;;;;7.97;4.10;;;;;;;3.17;72.79;93504.06;2051058;70;20279;-74
2022/11/13 03:42:10;;;;;;;7.35;3.60;;;;;;;3.14;73.63;93503.13;2051257;70;20181;-73
2022/11/13 03:44:54;;;;;;;5.95;3.72;;;;;;;2.96;73.72;93496.47;2051296;70;20157;-73
2022/11/13 03:47:38;;;;;;;7.25;4.22;;;;;;;2.84;74.03;93500.81;2048477;70;20584;-73
2022/11/13 03:50:22;;;;;;;10.50;4.30;;;;;;;2.85;73.29;93493.94;2051199;70;20158;-72
2022/11/13 03:53:06;;;;;;;7.88;4.70;;;;;;;2.85;73.79;93487.66;2051248;70;20177;-72
2022/11/13 03:55:51;;;;;;;9.70;5.55;;;;;;;2.84;72.82;93489.69;2051205;70;20221;-73
2022/11/13 03:58:35;;;;;;;9.32;5.43;;;;;;;2.87;73.40;93490.63;2051095;70;20225;-73
2022/11/13 04:01:19;;;;;;;23.35;13.43;;;;;;;2.80;73.25;93484.44;2051131;70;20157;-73
2022/11/13 04:04:03;;;;;;;9.65;5.53;;;;;;;2.70;74.87;93472.31;2051216;70;20309;-73
2022/11/13 04:06:47;;;;;;;13.75;7.03;;;;;;;2.77;74.84;93468.84;2051267;70;20161;-72
2022/11/13 04:09:31;;;;;;;18.40;9.18;;;;;;;2.83;74.69;93465.19;2051247;70;20189;-73
2022/11/13 04:12:15;;;;;;;11.50;5.85;;;;;;;2.89;73.85;93471.38;2051145;70;20245;-73
2022/11/13 04:15:00;;;;;;;11.63;5.97;;;;;;;2.89;73.55;93468.59;2051126;70;20681;-74
2022/11/13 04:17:43;;;;;;;7.97;4.72;;;;;;;2.84;73.47;93459.09;2051069;70;20217;-73
2022/11/13 04:20:29;;;;;;;9.02;4.32;;;;;;;2.68;75.58;93458.19;2051163;70;20625;-73
2022/11/13 04:23:14;;;;;;;11.13;5.00;;;;;;;2.88;74.61;93455.94;2048427;70;20157;-73
2022/11/13 04:25:59;;;;;;;8.07;4.28;;;;;;;2.70;73.80;93444.50;2051289;70;20152;-73
2022/11/13 04:28:42;;;;;;;8.50;4.45;;;;;;;2.91;73.62;93436.16;2051026;70;20205;-74
2022/11/13 04:31:29;;;;;;;6.90;4.25;;;;;;;2.80;73.64;93436.44;2051208;70;20289;-74
2022/11/13 04:34:14;;;;;;;6.47;4.00;;;;;;;2.83;73.66;93440.91;2048408;70;20312;-74
2022/11/13 04:36:58;;;;;;;5.30;3.40;;;;;;;2.85;73.14;93432.78;2051203;70;20258;-74
2022/11/13 04:39:43;;;;;;;10.95;3.80;;;;;;;2.86;73.20;93434.25;2048298;70;20154;-75
2022/11/13 04:45:30;;;;;;;4.85;2.70;;;;;;;2.88;73.28;93428.13;2051166;70;20241;-74
2022/11/13 04:48:14;;;;;;;8.60;2.90;;;;;;;3.01;72.69;93428.81;2050924;70;20653;-75
2022/11/13 04:50:58;;;;;;;6.78;4.03;;;;;;;2.42;75.01;93428.47;2051144;70;20193;-74
2022/11/13 04:53:42;;;;;;;6.28;3.70;;;;;;;2.53;73.94;93430.25;2051284;70;20158;-74
2022/11/13 04:56:26;;;;;;;6.05;3.50;;;;;;;2.58;74.02;93428.63;2051239;70;20150;-74
2022/11/13 04:59:10;;;;;;;6.55;3.65;;;;;;;2.68;73.36;93432.44;2051021;70;20157;-74
2022/11/13 05:01:54;;;;;;;5.60;3.30;;;;;;;2.68;73.08;93426.88;2051191;70;20650;-75
2022/11/13 05:04:38;;;;;;;5.70;3.50;;;;;;;2.78;73.44;93419.53;2051209;70;20192;-74
2022/11/13 05:07:22;;;;;;;6.95;4.30;;;;;;;2.72;72.71;93413.38;2048332;70;20582;-75
2022/11/13 05:10:08;;;;;;;6.95;4.20;;;;;;;2.72;72.66;93407.81;2048335;70;20184;-74
2022/11/13 05:12:55;;;;;;;7.18;3.42;;;;;;;2.55;74.18;93410.97;2051019;70;20160;-74
2022/11/13 05:15:39;;;;;;;7.47;3.25;;;;;;;2.62;73.88;93417.91;2051082;70;20158;-75
2022/11/13 05:18:25;;;;;;;7.05;3.38;;;;;;;2.75;74.17;93412.28;2050987;70;20499;-74
2022/11/13 05:21:09;;;;;;;5.88;3.42;;;;;;;2.64;73.29;93421.63;2051074;70;20189;-74
2022/11/13 05:23:53;;;;;;;6.60;3.72;;;;;;;2.55;73.56;93427.66;2051067;70;20185;-75
2022/11/13 05:26:38;;;;;;;5.65;3.13;;;;;;;2.63;73.24;93416.63;2051148;70;20261;-74
2022/11/13 05:29:22;;;;;;;7.47;4.22;;;;;;;2.19;75.23;93405.25;2050936;70;20162;-74
2022/11/13 05:32:07;;;;;;;7.68;4.00;;;;;;;2.27;74.93;93406.06;2051136;70;20170;-74
2022/11/13 05:34:50;;;;;;;12.23;4.30;;;;;;;2.40;74.68;93405.28;2051114;70;20241;-75
2022/11/13 05:37:35;;;;;;;9.35;4.43;;;;;;;2.46;74.19;93395.53;2051137;70;20157;-74
2022/11/13 05:40:18;;;;;;;7.90;4.15;;;;;;;2.53;74.55;93402.44;2051104;70;20196;-74
2022/11/13 05:43:02;;;;;;;7.38;3.90;;;;;;;2.55;74.25;93402.66;2051039;70;20154;-75
2022/11/13 05:45:46;;;;;;;7.25;3.50;;;;;;;2.54;74.07;93404.69;2051160;70;20268;-74
2022/11/13 05:48:31;;;;;;;8.55;4.20;;;;;;;2.49;74.09;93397.22;2051064;70;20231;-74
2022/11/13 05:51:18;;;;;;;7.40;4.32;;;;;;;2.49;74.21;93404.81;2051147;70;20146;-74
2022/11/13 05:54:03;;;;;;;5.25;3.53;;;;;;;2.45;73.85;93402.38;2051089;70;20597;-74
2022/11/13 05:56:47;;;;;;;5.93;3.80;;;;;;;2.43;73.69;93404.19;2051159;70;20181;-74
2022/11/13 05:59:31;;;;;;;7.10;3.92;;;;;;;2.41;74.41;93406.78;2050872;70;20237;-74
2022/11/13 06:02:15;;;;;;;7.00;4.32;;;;;;;2.31;73.99;93402.97;2048253;70;20163;-74
2022/11/13 06:04:59;;;;;;;8.77;4.28;;;;;;;2.39;73.83;93399.00;2051005;70;20156;-74
2022/11/13 06:07:43;;;;;;;9.73;4.30;;;;;;;2.26;72.97;93379.59;2051016;70;20161;-74
2022/11/13 06:10:27;;;;;;;8.07;5.10;;;;;;;2.26;73.45;93379.59;2048315;70;20702;-74
2022/11/13 06:13:12;;;;;;;16.55;7.82;;;;;;;2.22;73.99;93381.94;2050923;70;20201;-74
2022/11/13 06:16:01;;;;;;;7.85;5.03;;;;;;;2.16;74.31;93379.31;2050961;70;20208;-74
2022/11/13 06:18:46;;;;;;;14.15;7.53;;;;;;;2.24;74.03;93384.94;2050970;70;20150;-74
2022/11/13 06:21:34;;;;;;;13.10;7.22;;;;;;;2.36;73.11;93386.16;2050929;70;20153;-74
2022/11/13 06:24:18;;;;;;;13.75;7.57;;;;;;;2.31;73.91;93392.59;2050982;70;20578;-74
2022/11/13 06:27:02;;;;;;;10.52;7.05;;;;;;;2.32;75.03;93390.56;2050980;70;20224;-74
2022/11/13 06:29:46;;;;;;;14.40;7.95;;;;;;;2.21;74.00;93386.75;2050913;70;20538;-74
2022/11/13 06:32:30;;;;;;;15.55;9.23;;;;;;;2.21;73.98;93389.53;2050935;70;20607;-74
2022/11/13 06:35:14;;;;;;;12.18;7.53;;;;;;;2.29;73.87;93379.25;2050960;70;20157;-74
2022/11/13 06:37:58;;;;;;;13.93;6.55;;;;;;;2.38;74.00;93368.94;2050820;70;20479;-74
2022/11/13 06:40:42;;;;;;;16.30;8.88;;;;;;;2.31;74.28;93364.81;2050971;70;20239;-74
2022/11/13 06:43:27;;;;;;;18.13;10.00;;;;;;;2.29;73.83;93370.91;2050811;70;20161;-74
2022/11/13 06:46:15;;;;;;;18.77;9.25;;;;;;;2.24;73.73;93371.03;2050917;70;20146;-74
2022/11/13 06:48:59;;;;;;;14.05;8.40;;;;;;;2.16;74.17;93373.75;2050848;70;20145;-74
2022/11/13 06:51:44;;;;;;;19.70;10.25;;;;;;;2.24;74.45;93382.16;2050854;70;20252;-74
2022/11/13 06:54:28;;;;;;;14.05;8.55;;;;;;;2.27;74.44;93384.59;2050891;70;20162;-74
2022/11/13 06:57:12;;;;;;;23.48;15.50;;;;;;;2.17;75.16;93371.72;2050914;70;20257;-74
2022/11/13 06:59:56;;;;;;;19.85;12.07;;;;;;;2.28;75.18;93369.41;2050823;70;20264;-74
2022/11/13 07:02:40;;;;;;;18.40;11.57;;;;;;;2.36;74.27;93360.41;2050892;70;20153;-75
2022/11/13 07:05:24;;;;;;;18.27;11.05;;;;;;;2.50;73.98;93345.16;2050825;70;20217;-74
2022/11/13 07:08:08;;;;;;;14.38;9.90;;;;;;;2.45;73.98;93343.25;2050861;70;20166;-75
2022/11/13 07:10:54;;;;;;;16.20;10.40;;;;;;;2.45;73.50;93344.00;2051132;70;20243;-74
2022/11/13 07:13:39;;;;;;;20.23;12.18;;;;;;;2.38;74.35;93346.72;2048477;70;20193;-74
2022/11/13 07:16:24;;;;;;;16.45;10.10;;;;;;;2.45;74.32;93348.81;2051320;70;20278;-75
2022/11/13 07:19:08;;;;;;;16.15;8.63;;;;;;;2.47;74.48;93341.41;2051273;70;20169;-75
2022/11/13 07:21:52;;;;;;;11.48;7.53;;;;;;;2.24;75.13;93334.91;2051358;70;20157;-75
2022/11/13 07:24:36;;;;;;;19.88;9.98;;;;;;;2.26;75.63;93329.56;2051334;70;20495;-75
2022/11/13 07:27:21;;;;;;;18.20;9.38;;;;;;;2.33;75.05;93337.22;2051322;70;20157;-75
2022/11/13 07:30:05;;;;;;;14.93;8.23;;;;;;;2.54;75.18;93342.78;2051393;70;20659;-74
2022/11/13 07:32:50;;;;;;;19.30;10.27;;;;;;;2.50;74.68;93343.13;2051527;70;20181;-74
2022/11/13 07:35:34;;;;;;;18.05;9.73;;;;;;;2.55;74.26;93336.69;2051312;70;20141;-75
2022/11/13 07:38:18;;;;;;;16.77;9.52;;;;;;;2.69;73.77;93322.69;2051257;70;20153;-74
2022/11/13 07:41:02;;;;;;;17.70;9.98;;;;;;;2.67;73.85;93323.25;2051303;70;20157;-75
2022/11/13 07:43:46;;;;;;;22.73;11.85;;;;;;;2.73;73.66;93326.63;2051187;70;20245;-75
2022/11/13 07:46:30;;;;;;;18.85;11.68;;;;;;;2.58;74.61;93331.34;2051312;70;20241;-75
2022/11/13 07:49:14;;;;;;;18.38;10.27;;;;;;;2.74;74.97;93310.69;2051286;70;20216;-75
2022/11/13 07:51:59;;;;;;;16.70;9.82;;;;;;;2.74;74.16;93300.31;2051280;70;20249;-74
2022/11/13 07:54:43;;;;;;;16.98;9.45;;;;;;;2.75;74.85;93309.41;2051335;70;20169;-75
2022/11/13 07:57:27;;;;;;;35.53;19.83;;;;;;;2.76;74.61;93299.78;2051167;70;20296;-75
2022/11/13 08:00:12;;;;;;;33.38;19.50;;;;;;;2.71;74.74;93295.09;2051206;70;20157;-75
2022/11/13 08:02:56;;;;;;;41.90;23.52;;;;;;;2.52;75.38;93301.66;2051278;70;20614;-74
2022/11/13 08:05:41;;;;;;;30.27;17.20;;;;;;;2.61;75.38;93285.75;2051465;70;20161;-74
2022/11/13 08:08:25;;;;;;;33.03;17.42;;;;;;;2.73;74.70;93281.41;2051345;70;20482;-75
2022/11/13 08:11:09;;;;;;;21.77;12.75;;;;;;;2.91;74.86;93280.41;2051195;70;20680;-74
2022/11/13 08:13:54;;;;;;;22.17;13.70;;;;;;;3.26;74.92;93281.72;2051133;70;20149;-75
2022/11/13 08:16:38;;;;;;;31.20;14.88;;;;;;;3.88;73.89;93284.69;2051345;70;20145;-74
2022/11/13 08:19:22;;;;;;;34.83;15.60;;;;;;;4.39;74.88;93290.16;2051275;70;20162;-75
2022/11/13 08:22:07;;;;;;;36.97;15.77;;;;;;;4.72;73.45;93284.78;2051230;70;20181;-74
2022/11/13 08:24:52;;;;;;;29.27;13.48;;;;;;;5.16;72.05;93270.59;2051207;70;20172;-74
2022/11/13 08:27:37;;;;;;;19.85;11.18;;;;;;;5.23;70.38;93278.94;2051085;70;20553;-75
2022/11/13 08:30:22;;;;;;;18.77;11.05;;;;;;;5.80;69.92;93269.22;2051222;70;20157;-75
2022/11/13 08:33:06;;;;;;;16.58;10.23;;;;;;;6.22;67.87;93263.78;2051151;70;20758;-74
2022/11/13 08:35:55;;;;;;;23.20;12.25;;;;;;;6.58;66.30;93285.72;2051190;70;20542;-75
2022/11/13 08:38:39;;;;;;;23.38;13.80;;;;;;;6.90;67.19;93283.44;2051216;70;20157;-75
2022/11/13 08:41:23;;;;;;;23.48;12.63;;;;;;;7.16;64.96;93274.41;2051145;70;20196;-75
2022/11/13 08:44:07;;;;;;;28.58;14.68;;;;;;;7.71;64.86;93270.47;2051013;70;20328;-75
2022/11/13 08:46:52;;;;;;;29.70;17.40;;;;;;;7.96;63.25;93267.50;2051103;70;20606;-75
2022/11/13 08:49:36;;;;;;;25.40;14.63;;;;;;;7.99;61.58;93263.56;2051100;70;20154;-76
2022/11/13 08:52:21;;;;;;;22.27;12.85;;;;;;;8.58;59.77;93265.38;2051113;70;20170;-76
2022/11/13 08:55:05;;;;;;;13.68;8.07;;;;;;;8.72;59.18;93257.28;2051082;70;20242;-76
2022/11/13 08:57:50;;;;;;;17.48;10.10;;;;;;;9.10;58.66;93256.66;2051018;70;20570;-75
2022/11/13 09:00:34;;;;;;;20.83;11.45;;;;;;;9.11;58.95;93258.13;2051123;70;20642;-75
2022/11/13 09:03:18;;;;;;;19.02;11.20;;;;;;;8.98;56.77;93255.75;2051047;70;20233;-75
2022/11/13 09:06:07;;;;;;;11.50;7.40;;;;;;;8.87;58.70;93259.09;2050728;70;20149;-75
2022/11/13 09:08:52;;;;;;;19.48;10.50;;;;;;;9.65;57.48;93263.50;2051073;70;20197;-77
2022/11/13 09:11:37;;;;;;;22.17;13.27;;;;;;;10.22;56.48;93264.06;2051359;70;20186;-77
2022/11/13 09:14:21;;;;;;;19.48;9.98;;;;;;;10.51;56.56;93258.38;2051005;70;20238;-80
2022/11/13 09:17:05;;;;;;;12.40;7.75;;;;;;;11.02;53.87;93267.50;2048431;70;20271;-79
2022/11/13 09:19:49;;;;;;;9.60;6.38;;;;;;;11.36;53.19;93269.09;2051010;70;20162;-78
2022/11/13 09:22:34;;;;;;;7.22;4.70;;;;;;;11.27;52.86;93269.88;2051102;70;20269;-79
2022/11/13 09:25:18;;;;;;;5.85;3.70;;;;;;;11.31;50.56;93281.41;2051110;70;20181;-76
2022/11/13 09:28:03;;;;;;;5.18;2.88;;;;;;;11.89;50.56;93274.66;2050991;70;20650;-75
2022/11/13 09:30:48;;;;;;;3.72;2.72;;;;;;;11.89;48.32;93272.56;2051085;70;20199;-79
2022/11/13 09:33:33;;;;;;;5.97;3.28;;;;;;;12.00;47.13;93287.34;2050953;70;20235;-78
2022/11/13 09:36:18;;;;;;;3.90;2.60;;;;;;;12.53;48.36;93279.41;2051077;70;20246;-75
2022/11/13 09:39:03;;;;;;;3.65;2.55;;;;;;;13.17;46.20;93281.94;2051096;70;20534;-80
2022/11/13 09:42:17;;;;;;;23.42;14.85;;;;;;;12.80;43.14;93270.50;2051170;70;20185;-79
2022/11/13 09:45:06;;;;;;;6.75;2.70;;;;;;;13.01;44.08;93278.13;2051342;70;20150;-77
2022/11/13 09:47:53;;;;;;;3.53;2.30;;;;;;;13.68;41.95;93279.31;2051372;70;20216;-75
2022/11/13 09:50:38;;;;;;;3.50;2.38;;;;;;;14.06;42.17;93271.56;2051152;70;20185;-77
2022/11/13 09:53:26;;;;;;;3.38;2.58;;;;;;;13.50;41.43;93264.09;2051142;70;20202;-75
2022/11/13 09:56:29;;;;;;;4.25;2.60;;;;;;;14.05;44.83;93264.44;2049991;70;20153;-74
2022/11/13 09:59:44;;;;;;;3.63;2.70;;;;;;;14.13;43.03;93262.06;2050881;70;20165;-75
2022/11/13 10:02:37;;;;;;;14.77;9.27;;;;;;;14.42;41.56;93262.28;2051005;70;20490;-74
2022/11/13 10:05:41;;;;;;;5.28;3.75;;;;;;;15.79;40.14;93254.63;2051096;70;20196;-76
2022/11/13 10:08:34;;;;;;;3.25;2.40;;;;;;;15.41;36.01;93265.47;2050987;70;20510;-77
2022/11/13 10:11:39;;;;;;;4.75;2.65;;;;;;;16.68;39.38;93244.78;2051037;70;20165;-76
2022/11/13 10:14:34;;;;;;;3.03;2.38;;;;;;;17.70;36.29;93246.50;2050973;70;20165;-76
2022/11/13 10:17:43;;;;;;;3.95;2.28;;;;;;;17.66;32.78;93242.75;2050979;70;20157;-75
2022/11/13 10:20:30;;;;;;;63.20;39.55;;;;;;;16.20;37.68;93234.66;2051504;70;20209;-76
2022/11/13 10:23:20;;;;;;;8.20;5.35;;;;;;;17.65;36.92;93227.78;2051063;70;20225;-76
2022/11/13 10:26:17;;;;;;;2.75;2.20;;;;;;;18.22;34.90;93223.75;2051848;70;20216;-76
2022/11/13 10:29:16;;;;;;;2.97;2.08;;;;;;;17.82;34.74;93225.66;2051002;70;20145;-76
2022/11/13 10:32:26;;;;;;;3.03;2.03;;;;;;;17.36;36.36;93227.91;2051129;70;20150;-76
2022/11/13 10:35:35;;;;;;;2.08;1.73;;;;;;;20.00;33.36;93229.03;2051048;70;20153;-76
2022/11/13 10:38:30;;;;;;;2.22;1.40;;;;;;;20.77;31.73;93221.53;2049954;70;20511;-75
2022/11/13 10:41:18;;;;;;;4.47;2.42;;;;;;;22.67;29.79;93230.41;2051009;70;20161;-79
2022/11/13 10:44:17;;;;;;;1.88;1.58;;;;;;;22.98;27.77;93229.00;2050846;70;20149;-79
2022/11/13 10:47:19;;;;;;;1.60;1.50;;;;;;;23.48;25.11;93225.06;2050949;70;20252;-78
2022/11/13 10:50:11;;;;;;;3.63;2.00;;;;;;;23.75;25.69;93235.00;2050957;70;20153;-79
2022/11/13 10:52:56;;;;;;;;;;;;;;;21.43;27.29;93224.97;2051130;70;20240;-78
2022/11/13 10:55:40;;;;;;;3.05;1.50;;;;;;;24.59;26.68;93220.72;2048168;70;20086;-78
2022/11/13 10:58:26;;;;;;;2.10;1.60;;;;;;;25.23;25.14;93230.38;2050769;70;20487;-78
2022/11/13 11:01:20;;;;;;;1.85;1.60;;;;;;;25.16;25.72;93202.94;2050866;70;20156;-78
2022/11/13 11:04:06;;;;;;;2.22;1.98;;;;;;;24.30;24.24;93210.13;2050973;70;20157;-78
2022/11/13 11:06:51;;;;;;;1.45;1.20;;;;;;;21.38;27.74;93211.22;2048193;70;20483;-79
2022/11/13 11:09:38;;;;;;;1.75;1.50;;;;;;;25.78;24.29;93208.06;2050975;70;20221;-78
2022/11/13 11:12:24;;;;;;;2.35;1.67;;;;;;;27.77;21.85;93203.28;2051037;70;20317;-78
2022/11/13 11:15:20;;;;;;;2.75;2.00;;;;;;;29.07;20.95;93199.19;2050803;70;20651;-79
2022/11/13 11:18:19;;;;;;;4.95;2.10;;;;;;;28.08;21.42;93186.72;2050727;70;20209;-78
2022/11/13 11:21:20;;;;;;;2.80;2.00;;;;;;;27.31;20.00;93175.56;2051008;70;20161;-75
2022/11/13 11:24:10;;;;;;;3.03;1.95;;;;;;;27.24;22.30;93179.13;2050914;70;20616;-77
2022/11/13 11:27:08;;;;;;;4.22;2.40;;;;;;;28.42;19.69;93179.59;2051045;70;20236;-78
2022/11/13 11:30:11;;;;;;;5.35;3.35;;;;;;;29.63;20.04;93169.38;2050822;70;20229;-78
2022/11/13 11:33:03;;;;;;;7.63;4.43;;;;;;;28.22;21.93;93151.31;2050938;70;20146;-77
2022/11/13 11:36:10;;;;;;;5.70;4.57;;;;;;;29.97;19.40;93155.47;2050849;70;20150;-76
2022/11/13 11:39:18;;;;;;;4.50;3.40;;;;;;;26.60;21.57;93132.44;2047465;70;20157;-76
2022/11/13 11:42:26;;;;;;;5.28;4.10;;;;;;;23.46;24.65;93130.19;2050889;70;20205;-76
2022/11/13 11:45:31;;;;;;;5.65;3.67;;;;;;;20.37;28.46;93113.03;2050747;70;20194;-76
2022/11/13 11:48:19;;;;;;;7.78;4.70;;;;;;;20.38;28.54;93114.47;2050917;70;20145;-76
2022/11/13 11:51:25;;;;;;;6.38;4.07;;;;;;;18.93;29.48;93118.19;2048054;70;20297;-76
2022/11/13 11:54:28;;;;;;;6.72;3.90;;;;;;;18.72;30.51;93090.31;2050788;70;20167;-76
2022/11/13 11:57:34;;;;;;;7.63;3.88;;;;;;;16.10;34.98;93083.66;2051111;70;20189;-76
2022/11/13 12:00:19;;;;;;;4.55;3.33;;;;;;;16.38;35.33;93067.91;2051448;70;20201;-75
2022/11/13 12:03:04;;;;;;;5.78;3.28;;;;;;;15.79;35.09;93072.97;2051186;70;20274;-75
2022/11/13 12:06:30;;;;;;;6.78;3.40;;;;;;;15.54;36.19;93071.03;2048507;70;20208;-75
2022/11/13 12:09:20;;;;;;;4.45;3.00;;;;;;;15.69;36.08;93056.19;2047524;70;20181;-75
2022/11/13 12:12:35;;;;;;;4.70;3.00;;;;;;;13.70;39.41;93045.34;2049959;70;20494;-73
2022/11/13 12:15:47;;;;;;;5.95;3.30;;;;;;;13.82;40.01;93044.53;2051371;70;20205;-75
2022/11/13 12:18:42;;;;;;;5.60;3.20;;;;;;;13.95;39.85;93044.56;2051152;70;20161;-74
2022/11/13 12:21:41;;;;;;;6.50;4.00;;;;;;;13.88;40.11;93017.31;2051226;70;20192;-74
2022/11/13 12:24:50;;;;;;;8.02;3.60;;;;;;;13.35;40.77;93025.00;2051258;70;20217;-74
2022/11/13 12:27:58;;;;;;;33.70;19.10;;;;;;;13.24;41.29;93015.22;2049988;70;20177;-74
2022/11/13 12:31:07;;;;;;;24.00;13.88;;;;;;;12.93;42.26;93007.09;2048146;70;20154;-75
2022/11/13 12:34:03;;;;;;;51.85;29.15;;;;;;;12.33;43.48;93010.69;2050848;70;20594;-74
2022/11/13 12:36:48;;;;;;;41.45;23.33;;;;;;;12.25;44.20;92993.25;2050742;70;20217;-74
2022/11/13 12:39:44;;;;;;;17.33;10.57;;;;;;;12.57;42.91;92986.69;2050621;70;20294;-73
2022/11/13 12:42:34;;;;;;;26.98;16.00;;;;;;;11.67;44.66;92978.53;2050375;70;20621;-74
2022/11/13 12:45:21;;;;;;;26.17;16.25;;;;;;;11.42;45.80;92989.66;2050719;70;20280;-73
2022/11/13 12:48:15;;;;;;;25.60;17.08;;;;;;;11.32;46.25;92986.94;2053025;70;20284;-74
2022/11/13 12:51:08;;;;;;;24.48;16.00;;;;;;;11.63;46.22;92974.72;2054336;70;20185;-74
2022/11/13 12:53:54;;;;;;;22.50;14.27;;;;;;;11.15;46.68;92987.28;2054540;70;20148;-74
2022/11/13 12:56:48;;;;;;;20.90;13.60;;;;;;;11.38;45.81;92969.69;2054106;70;20284;-75
2022/11/13 12:59:38;;;;;;;18.50;11.80;;;;;;;11.37;46.87;92966.13;2051962;70;20240;-76
2022/11/13 13:02:39;;;;;;;17.98;10.85;;;;;;;10.83;47.81;92966.22;2054481;70;20244;-75
2022/11/13 13:05:47;;;;;;;20.23;11.27;;;;;;;11.24;46.66;92954.69;2054008;70;20226;-76
2022/11/13 13:08:58;;;;;;;10.30;7.10;;;;;;;9.92;50.40;92958.88;2053840;70;20207;-74
2022/11/13 13:11:59;;;;;;;27.27;14.27;;;;;;;10.30;50.59;92960.72;2053980;69;20301;-74
2022/11/13 13:15:15;;;;;;;31.73;16.10;;;;;;;10.61;49.54;92949.38;2053948;70;20244;-74